createdAt,value
2022-10-04T00:06:37.879Z,30.9907
2022-10-04T00:21:39.938Z,31.1108
2022-10-04T00:36:41.909Z,30.9647
2022-10-04T00:51:43.900Z,31.5528
2022-10-04T01:06:45.907Z,31.5918
2022-10-04T01:21:47.729Z,31.3646
2022-10-04T01:36:49.580Z,31.4816
2022-10-04T01:51:51.441Z,31.0266
2022-10-04T02:06:53.269Z,31.3937
2022-10-04T02:21:55.100Z,30.7115
2022-10-04T02:36:56.929Z,30.7796
2022-10-04T02:51:58.740Z,30.5617
2022-10-04T03:07:00.634Z,30.6304
2022-10-04T03:22:02.468Z,30.4614
2022-10-04T03:37:04.331Z,30.9783
2022-10-04T03:52:06.177Z,30.8805
2022-10-04T04:07:08.029Z,30.3704
2022-10-04T04:22:09.848Z,29.1515
2022-10-04T04:37:11.653Z,28.4328
2022-10-04T04:52:13.495Z,28.2217
2022-10-04T05:07:15.353Z,27.7599
2022-10-04T05:22:17.190Z,26.5125
2022-10-04T05:37:19.011Z,26.5187
2022-10-04T05:52:20.851Z,25.7418
2022-10-04T06:07:22.683Z,25.1729
2022-10-04T06:22:24.539Z,25.1791
2022-10-04T06:37:26.392Z,24.9352
2022-10-04T06:52:28.219Z,25.2701
2022-10-04T07:07:30.059Z,25.0392
2022-10-04T07:22:31.917Z,24.5421
2022-10-04T07:37:33.739Z,24.6523
2022-10-04T07:52:35.550Z,24.0023
2022-10-04T08:07:37.386Z,23.8983
2022-10-04T08:22:39.238Z,23.2322
2022-10-04T08:37:41.102Z,24.0605
2022-10-04T08:52:42.943Z,23.8624
2022-10-04T09:07:44.761Z,22.7283
2022-10-04T09:22:46.604Z,22.2764
2022-10-04T09:37:48.431Z,22.4225
2022-10-04T09:52:50.273Z,22.6274
2022-10-04T10:07:52.121Z,22.8447
2022-10-04T10:22:53.947Z,22.1495
2022-10-04T10:37:55.788Z,22.5878
2022-10-04T10:52:57.619Z,21.6846
2022-10-04T11:07:59.463Z,22.0486
2022-10-04T11:23:01.322Z,22.4219
2022-10-04T11:38:03.164Z,21.5218
2022-10-04T11:53:04.999Z,20.8458
2022-10-04T12:08:06.814Z,21.0049
2022-10-04T12:23:08.658Z,21.411
2022-10-04T12:38:10.514Z,20.4818
2022-10-04T12:53:12.352Z,20.982
2022-10-04T13:08:14.175Z,20.7932
2022-10-04T13:23:16.023Z,20.5951
2022-10-04T13:38:17.851Z,20.5821
2022-10-04T13:53:19.691Z,20.6731
2022-10-04T14:08:21.532Z,20.241
2022-10-04T14:23:23.349Z,19.9222
2022-10-04T14:38:26.896Z,20.1692
2022-10-04T14:53:28.917Z,19.2561
2022-10-04T15:08:30.774Z,19.6263
2022-10-04T15:23:32.599Z,20.202
2022-10-04T15:38:34.426Z,20.4521
2022-10-04T15:53:36.282Z,22.7401
2022-10-04T16:08:38.140Z,23.5721
2022-10-04T16:23:40.016Z,23.829
2022-10-04T16:38:41.848Z,23.6018
2022-10-04T16:53:43.700Z,24.8461
2022-10-04T17:08:45.606Z,24.4146
2022-10-04T17:23:47.462Z,24.8665
2022-10-04T17:38:49.322Z,25.4187
2022-10-04T17:53:51.165Z,24.8312
2022-10-04T18:08:53.001Z,25.7307
2022-10-04T18:23:54.863Z,25.8384
2022-10-04T18:38:56.697Z,26.1083
2022-10-04T18:53:58.548Z,26.4333
2022-10-04T19:09:00.380Z,26.7973
2022-10-04T19:24:02.196Z,26.6642
2022-10-04T19:39:04.044Z,27.2424
2022-10-04T19:54:05.896Z,27.074
2022-10-04T20:09:07.727Z,27.8082
2022-10-04T20:24:09.558Z,27.3631
2022-10-04T20:39:11.960Z,27.9122
2022-10-04T20:54:13.819Z,27.854
2022-10-04T21:09:15.695Z,27.5779
2022-10-04T21:24:17.534Z,29.115
2022-10-04T21:39:19.361Z,29.0141
2022-10-04T21:54:21.182Z,28.6247
2022-10-04T22:09:23.047Z,29.1738
2022-10-04T22:24:24.887Z,29.5768
2022-10-04T22:39:26.743Z,29.8628
2022-10-04T22:54:28.575Z,30.1618
2022-10-04T23:09:30.407Z,29.5675
2022-10-04T23:24:32.266Z,29.5415
2022-10-04T23:39:34.132Z,29.7365
2022-10-04T23:54:35.980Z,29.8597
